Vega Sagittarius — A8RK2 — position and weather

sailwx.info

Track history (hours):
 
Tides and Currents Weather Stations Pressure Air Temp Water Temp Dewpoint Dewpoint Depression Visibility Wind Speed Wind Dir Waves Ship Positions

Vega Sagittarius

Last reported at 2017-Nov-10 08:18 UTC. Time now 2017-Nov-22 22:07 UTC.
Position N 25°56' W 077°56'.
Warning: this ship's position is 12 days out of date.

Length 139 m; draft 8.6 m.

Type: Ship (hazmat cat A). MMSI: 636091667.

Date/timePositionNaut miles runAvg speedWind from/ knotsBaromVisibWave heightAir tempDewpointWater temp
2017-Nov-10 08:18N 25°56' W 077°56'516.4
2017-Nov-10 08:00N 25°57' W 078°02'9215.7
2017-Nov-10 02:07N 26°08' W 079°44'215.7
2017-Nov-10 02:00N 26°07' W 079°46'713.4
2017-Nov-10 01:30N 26°07' W 079°54'714.8
2017-Nov-10 01:00N 26°06' W 080°02'5 9.3
2017-Nov-10 00:31N 26°05' W 080°07'1 1.7
2017-Nov-10 00:00N 26°04' W 080°07'0 0.0
2017-Nov-09 23:30N 26°04' W 080°07'0 0.0
2017-Nov-09 23:00N 26°04' W 080°07'0 0.0
2017-Nov-09 22:30N 26°04' W 080°07'0 0.0
2017-Nov-09 22:00N 26°04' W 080°07'0 0.0
2017-Nov-09 21:30N 26°04' W 080°07'0 0.0
2017-Nov-09 21:00N 26°04' W 080°07'0 0.0
2017-Nov-09 20:30N 26°04' W 080°07'0 0.0
2017-Nov-09 20:00N 26°04' W 080°07'0 0.0
2017-Nov-09 19:30N 26°04' W 080°07'0 0.0
2017-Nov-09 19:00N 26°04' W 080°07'0 0.0
2017-Nov-09 18:30N 26°04' W 080°07'0 0.0
2017-Nov-09 18:00N 26°04' W 080°07'0 0.0
2017-Nov-09 17:30N 26°04' W 080°07'0 0.0
2017-Nov-09 17:00N 26°04' W 080°07'0 0.0
2017-Nov-09 16:30N 26°04' W 080°07'0 0.0
2017-Nov-09 16:00N 26°04' W 080°07'0 0.0
2017-Nov-09 15:30N 26°04' W 080°07'0 0.0
2017-Nov-09 15:00N 26°04' W 080°07'0 0.0
2017-Nov-09 14:30N 26°04' W 080°07'0 0.0
2017-Nov-09 13:59N 26°04' W 080°07'0 0.0
2017-Nov-09 13:29N 26°04' W 080°07'0 0.0
2017-Nov-09 13:00N 26°04' W 080°07'0 0.0
2017-Nov-09 12:30N 26°04' W 080°07'0 0.0
2017-Nov-09 12:00N 26°04' W 080°07'0 0.0
2017-Nov-09 11:30N 26°04' W 080°07'0 0.0
2017-Nov-09 11:00N 26°04' W 080°07'0 0.0
2017-Nov-09 10:30N 26°04' W 080°07'0 0.0
2017-Nov-09 10:00N 26°04' W 080°07'0 0.0
2017-Nov-09 09:30N 26°04' W 080°07'0 0.0
2017-Nov-09 08:57N 26°04' W 080°07'0 0.0
2017-Nov-09 08:30N 26°04' W 080°07'0 0.0
2017-Nov-09 08:00N 26°04' W 080°07'0 0.0
2017-Nov-09 07:30N 26°04' W 080°07'0 0.0
2017-Nov-09 07:00N 26°04' W 080°07'0 0.0
2017-Nov-09 06:30N 26°04' W 080°07'0 0.0
2017-Nov-09 06:00N 26°04' W 080°07'0 0.0
2017-Nov-09 05:30N 26°04' W 080°07'0 0.0
2017-Nov-09 05:00N 26°04' W 080°07'0 0.0
2017-Nov-09 04:30N 26°04' W 080°07'0 0.0
2017-Nov-09 04:00N 26°04' W 080°07'0 0.0
2017-Nov-09 03:30N 26°04' W 080°07'0 0.0
2017-Nov-09 03:00N 26°04' W 080°07'0 0.0
2017-Nov-09 02:30N 26°04' W 080°07'0 0.0
2017-Nov-09 02:00N 26°04' W 080°07'0 0.0
2017-Nov-09 01:30N 26°04' W 080°07'0 0.0
2017-Nov-09 01:00N 26°04' W 080°07'2 3.2
2017-Nov-09 00:30N 26°06' W 080°06'3 6.1
2017-Nov-09 00:00N 26°06' W 080°02'7 8.6
2017-Nov-08 23:14N 26°07' W 079°55'210.3
2017-Nov-08 23:00N 26°07' W 079°53'2 4.0
2017-Nov-08 22:30N 26°05' W 079°51'2 3.1
2017-Nov-08 22:00N 26°04' W 079°52'1 2.9
2017-Nov-08 21:30N 26°03' W 079°53'1 2.7
2017-Nov-08 21:00N 26°02' W 079°54'1 2.5
2017-Nov-08 20:30N 26°01' W 079°55'3 6.1
2017-Nov-08 20:00N 25°58' W 079°54'611.5
2017-Nov-08 19:30N 25°52' W 079°51'  
2017-Nov-05 15:23N 11°11' W 074°52'510.8
2017-Nov-05 14:58N 11°07' W 074°51'612.7
2017-Nov-05 14:30N 11°02' W 074°48'4 3.6
2017-Nov-05 13:15N 10°58' W 074°46'0 0.0
2017-Nov-05 12:51N 10°58' W 074°46'0 0.0
2017-Nov-05 11:39N 10°58' W 074°46'0 0.0
2017-Nov-05 11:15N 10°58' W 074°46'0 0.0
2017-Nov-05 10:57N 10°58' W 074°46'0 0.0
2017-Nov-05 10:27N 10°58' W 074°46'0 0.0
2017-Nov-05 07:57N 10°58' W 074°46'0 0.0
2017-Nov-05 07:15N 10°58' W 074°46'0 0.0
2017-Nov-05 06:51N 10°58' W 074°46'0 0.0
2017-Nov-05 06:27N 10°58' W 074°46'0 0.0
2017-Nov-05 05:33N 10°58' W 074°46'0 0.0
2017-Nov-05 05:21N 10°58' W 074°46'0 0.0
2017-Nov-05 00:44N 10°58' W 074°46'0 0.0
2017-Nov-05 00:14N 10°58' W 074°46'0 0.0
2017-Nov-04 23:50N 10°58' W 074°46'0 0.0
2017-Nov-04 23:20N 10°58' W 074°46'0 0.0
2017-Nov-04 22:32N 10°58' W 074°46'0 0.0
2017-Nov-04 21:44N 10°58' W 074°46'0 0.5
2017-Nov-04 21:25N 10°58' W 074°45'3 7.6
2017-Nov-04 21:00N 11°01' W 074°47'4 8.6
2017-Nov-04 20:30N 11°04' W 074°50'63 4.7
2017-Nov-04 07:06N 10°19' W 075°36'1 7.7
2017-Nov-04 07:00N 10°19' W 075°35'5 8.5
2017-Nov-04 06:24N 10°22' W 075°31'59 1.1
2017-Nov-02 02:41N 11°07' W 074°51'211.3
2017-Nov-02 02:30N 11°04' W 074°51'611.2
2017-Nov-02 02:00N 11°01' W 074°46'  
Track history (hours):
 
Tides and Currents Weather Stations Pressure Air Temp Water Temp Dewpoint Dewpoint Depression Visibility Wind Speed Wind Dir Waves Ship Positions

Vega Sagittarius

Last reported at 2017-Nov-10 08:18 UTC. Time now 2017-Nov-22 22:07 UTC.
Position N 25°56' W 077°56'.
Warning: this ship's position is 12 days out of date.

Length 139 m; draft 8.6 m.

Type: Ship (hazmat cat A). MMSI: 636091667.

Date/timePositionNaut miles runAvg speedWind from/ knotsBaromVisibWave heightAir tempDewpointWater temp
2017-Nov-10 08:18N 25°56' W 077°56'516.4
2017-Nov-10 08:00N 25°57' W 078°02'9215.7
2017-Nov-10 02:07N 26°08' W 079°44'215.7
2017-Nov-10 02:00N 26°07' W 079°46'713.4
2017-Nov-10 01:30N 26°07' W 079°54'714.8
2017-Nov-10 01:00N 26°06' W 080°02'5 9.3
2017-Nov-10 00:31N 26°05' W 080°07'1 1.7
2017-Nov-10 00:00N 26°04' W 080°07'0 0.0
2017-Nov-09 23:30N 26°04' W 080°07'0 0.0
2017-Nov-09 23:00N 26°04' W 080°07'0 0.0
2017-Nov-09 22:30N 26°04' W 080°07'0 0.0
2017-Nov-09 22:00N 26°04' W 080°07'0 0.0
2017-Nov-09 21:30N 26°04' W 080°07'0 0.0
2017-Nov-09 21:00N 26°04' W 080°07'0 0.0
2017-Nov-09 20:30N 26°04' W 080°07'0 0.0
2017-Nov-09 20:00N 26°04' W 080°07'0 0.0
2017-Nov-09 19:30N 26°04' W 080°07'0 0.0
2017-Nov-09 19:00N 26°04' W 080°07'0 0.0
2017-Nov-09 18:30N 26°04' W 080°07'0 0.0
2017-Nov-09 18:00N 26°04' W 080°07'0 0.0
2017-Nov-09 17:30N 26°04' W 080°07'0 0.0
2017-Nov-09 17:00N 26°04' W 080°07'0 0.0
2017-Nov-09 16:30N 26°04' W 080°07'0 0.0
2017-Nov-09 16:00N 26°04' W 080°07'0 0.0
2017-Nov-09 15:30N 26°04' W 080°07'0 0.0
2017-Nov-09 15:00N 26°04' W 080°07'0 0.0
2017-Nov-09 14:30N 26°04' W 080°07'0 0.0
2017-Nov-09 13:59N 26°04' W 080°07'0 0.0
2017-Nov-09 13:29N 26°04' W 080°07'0 0.0
2017-Nov-09 13:00N 26°04' W 080°07'0 0.0
2017-Nov-09 12:30N 26°04' W 080°07'0 0.0
2017-Nov-09 12:00N 26°04' W 080°07'0 0.0
2017-Nov-09 11:30N 26°04' W 080°07'0 0.0
2017-Nov-09 11:00N 26°04' W 080°07'0 0.0
2017-Nov-09 10:30N 26°04' W 080°07'0 0.0
2017-Nov-09 10:00N 26°04' W 080°07'0 0.0
2017-Nov-09 09:30N 26°04' W 080°07'0 0.0
2017-Nov-09 08:57N 26°04' W 080°07'0 0.0
2017-Nov-09 08:30N 26°04' W 080°07'0 0.0
2017-Nov-09 08:00N 26°04' W 080°07'0 0.0
2017-Nov-09 07:30N 26°04' W 080°07'0 0.0
2017-Nov-09 07:00N 26°04' W 080°07'0 0.0
2017-Nov-09 06:30N 26°04' W 080°07'0 0.0
2017-Nov-09 06:00N 26°04' W 080°07'0 0.0
2017-Nov-09 05:30N 26°04' W 080°07'0 0.0
2017-Nov-09 05:00N 26°04' W 080°07'0 0.0
2017-Nov-09 04:30N 26°04' W 080°07'0 0.0
2017-Nov-09 04:00N 26°04' W 080°07'0 0.0
2017-Nov-09 03:30N 26°04' W 080°07'0 0.0
2017-Nov-09 03:00N 26°04' W 080°07'0 0.0
2017-Nov-09 02:30N 26°04' W 080°07'0 0.0
2017-Nov-09 02:00N 26°04' W 080°07'0 0.0
2017-Nov-09 01:30N 26°04' W 080°07'0 0.0
2017-Nov-09 01:00N 26°04' W 080°07'2 3.2
2017-Nov-09 00:30N 26°06' W 080°06'3 6.1
2017-Nov-09 00:00N 26°06' W 080°02'7 8.6
2017-Nov-08 23:14N 26°07' W 079°55'210.3
2017-Nov-08 23:00N 26°07' W 079°53'2 4.0
2017-Nov-08 22:30N 26°05' W 079°51'2 3.1
2017-Nov-08 22:00N 26°04' W 079°52'1 2.9
2017-Nov-08 21:30N 26°03' W 079°53'1 2.7
2017-Nov-08 21:00N 26°02' W 079°54'1 2.5
2017-Nov-08 20:30N 26°01' W 079°55'3 6.1
2017-Nov-08 20:00N 25°58' W 079°54'611.5
2017-Nov-08 19:30N 25°52' W 079°51'  
2017-Nov-05 15:23N 11°11' W 074°52'510.8
2017-Nov-05 14:58N 11°07' W 074°51'612.7
2017-Nov-05 14:30N 11°02' W 074°48'4 3.6
2017-Nov-05 13:15N 10°58' W 074°46'0 0.0
2017-Nov-05 12:51N 10°58' W 074°46'0 0.0
2017-Nov-05 11:39N 10°58' W 074°46'0 0.0
2017-Nov-05 11:15N 10°58' W 074°46'0 0.0
2017-Nov-05 10:57N 10°58' W 074°46'0 0.0
2017-Nov-05 10:27N 10°58' W 074°46'0 0.0
2017-Nov-05 07:57N 10°58' W 074°46'0 0.0
2017-Nov-05 07:15N 10°58' W 074°46'0 0.0
2017-Nov-05 06:51N 10°58' W 074°46'0 0.0
2017-Nov-05 06:27N 10°58' W 074°46'0 0.0
2017-Nov-05 05:33N 10°58' W 074°46'0 0.0
2017-Nov-05 05:21N 10°58' W 074°46'0 0.0
2017-Nov-05 00:44N 10°58' W 074°46'0 0.0
2017-Nov-05 00:14N 10°58' W 074°46'0 0.0
2017-Nov-04 23:50N 10°58' W 074°46'0 0.0
2017-Nov-04 23:20N 10°58' W 074°46'0 0.0
2017-Nov-04 22:32N 10°58' W 074°46'0 0.0
2017-Nov-04 21:44N 10°58' W 074°46'0 0.5
2017-Nov-04 21:25N 10°58' W 074°45'3 7.6
2017-Nov-04 21:00N 11°01' W 074°47'4 8.6
2017-Nov-04 20:30N 11°04' W 074°50'63 4.7
2017-Nov-04 07:06N 10°19' W 075°36'1 7.7
2017-Nov-04 07:00N 10°19' W 075°35'5 8.5
2017-Nov-04 06:24N 10°22' W 075°31'59 1.1
2017-Nov-02 02:41N 11°07' W 074°51'211.3
2017-Nov-02 02:30N 11°04' W 074°51'611.2
2017-Nov-02 02:00N 11°01' W 074°46'  

Dump ship's entire track history